createdAt,value
2019-01-13T14:46:40.980Z,24.48
2019-01-13T14:47:40.966Z,24.52
2019-01-13T14:48:40.978Z,24.64
2019-01-13T14:49:33.089Z,24.68
2019-01-13T14:50:33.066Z,24.83
2019-01-13T14:51:33.050Z,24.94
2019-01-13T14:52:33.027Z,24.97
2019-01-13T14:53:33.010Z,25.08
2019-01-13T14:54:33.011Z,25.05
2019-01-13T14:55:32.962Z,25.16
2019-01-13T14:56:32.935Z,25.20
2019-01-13T14:57:32.910Z,25.22
2019-01-13T14:58:32.883Z,25.09
2019-01-13T14:59:32.875Z,25.07
2019-01-13T15:00:32.815Z,25.20
2019-01-13T15:01:32.792Z,25.26
2019-01-13T15:02:32.750Z,25.27
2019-01-13T15:03:32.721Z,25.29
2019-01-13T15:04:32.712Z,25.54
2019-01-13T15:05:32.686Z,25.59
2019-01-13T15:09:50.226Z,23.63
2019-01-13T15:10:50.223Z,23.47
2019-01-13T15:11:50.158Z,23.29
2019-01-13T15:12:50.143Z,23.25
2019-01-13T15:13:50.137Z,23.14
2019-01-13T15:14:50.244Z,23.41
2019-01-13T15:15:50.491Z,-40.00
2019-01-13T15:16:50.111Z,-40.00
2019-01-13T15:17:56.713Z,-40.00
2019-01-13T15:18:50.074Z,-40.00
2019-01-13T15:19:50.130Z,24.00
2019-01-13T15:21:07.418Z,23.78
2019-01-13T15:22:49.116Z,23.75
2019-01-13T15:23:49.032Z,23.75
2019-01-13T15:24:49.024Z,23.82
2019-01-13T15:44:32.989Z,23.94
2019-01-13T15:45:32.930Z,23.87
2019-01-13T15:46:32.896Z,23.84
2019-01-13T15:47:32.918Z,23.94
2019-01-13T15:48:32.844Z,23.78
2019-01-13T15:49:32.761Z,23.79
2019-01-13T15:50:32.728Z,23.86
2019-01-13T15:51:32.720Z,23.92
2019-01-13T16:02:23.148Z,16.03
2019-01-13T16:03:23.322Z,13.21
2019-01-13T16:04:26.395Z,11.84
2019-01-13T16:32:08.893Z,8.50
2019-01-13T16:33:01.846Z,8.55
2019-01-13T16:34:01.964Z,8.47
2019-01-13T16:37:03.371Z,8.39
2019-01-13T16:38:01.749Z,8.36
2019-01-13T16:39:01.833Z,8.45
2019-01-13T16:40:01.721Z,8.45
2019-01-13T16:41:01.710Z,8.45
2019-01-13T16:42:01.739Z,8.45
2019-01-13T16:43:01.689Z,8.40
2019-01-13T16:44:01.763Z,8.39
2019-01-13T16:45:01.689Z,8.37
2019-01-13T16:46:01.659Z,8.37
2019-01-13T16:47:01.677Z,8.34
2019-01-13T16:48:01.626Z,8.32
2019-01-13T16:49:01.659Z,8.42
2019-01-13T16:50:01.642Z,8.42
2019-01-13T16:51:01.597Z,8.37
2019-01-13T16:52:01.657Z,8.36
2019-01-13T16:54:03.394Z,8.39
2019-01-13T16:55:01.593Z,8.25
2019-01-13T16:56:01.540Z,8.28
2019-01-13T16:58:03.354Z,8.29
2019-01-13T16:59:01.513Z,8.31
2019-01-13T17:00:01.603Z,8.24
2019-01-13T17:01:01.535Z,8.28
2019-01-13T17:03:03.347Z,8.27
2019-01-13T17:04:01.464Z,8.27
2019-01-13T17:05:01.507Z,8.32
2019-01-13T17:06:01.946Z,8.28
2019-01-13T17:07:01.441Z,8.31
2019-01-13T17:09:03.484Z,8.31
2019-01-13T17:10:02.486Z,8.36
2019-01-13T17:11:01.539Z,8.28
2019-01-13T17:13:02.933Z,8.25
2019-01-13T17:15:02.959Z,8.36
2019-01-13T17:17:02.909Z,8.32
2019-01-13T17:18:22.374Z,8.18
2019-01-13T17:24:15.236Z,8.27
2019-01-13T17:25:12.150Z,8.28
2019-01-13T17:28:13.707Z,8.14
2019-01-13T17:30:13.722Z,8.12
